Airport ID:K63S
Update Time (UTC):28/11/2020 20:19
Wind Speed (Knots):3
Wind Direction (Magnetic):210
Temperature (°C):5
Dew Point (°C):0
Humidity (%):71
Altimeter (inHg):30.28
Density Altitude (Feet):
Visibility:10+
Clouds (Hundreds of feet):CLR
Present Weather:
METAR:METAR K63S 282015Z AUTO VRB03KT 10SM CLR 05/M00 A3028 RMK A01

The data displayed is for advisory purposes only and is not to be used for flight planning or operations.